createdAt,value
2017-11-28T08:35:42.366Z,6.20
2017-11-28T08:38:13.119Z,5.73
2017-11-28T08:40:43.896Z,5.10
2017-11-28T08:43:14.641Z,9.27
2017-11-28T08:45:45.409Z,29.47
2017-11-28T08:48:16.199Z,27.73
2017-11-28T08:50:47.002Z,27.30
2017-11-28T08:53:17.774Z,30.20
2017-11-28T08:55:48.542Z,29.37
2017-11-28T08:58:19.354Z,27.97
2017-11-28T09:00:50.144Z,25.53
2017-11-28T09:03:20.912Z,24.20
2017-11-28T09:05:51.698Z,24.17
2017-11-28T09:08:22.447Z,23.10
2017-11-28T09:10:53.226Z,22.30
2017-11-28T09:13:24.010Z,19.60
2017-11-28T09:15:54.773Z,21.03
2017-11-28T09:18:25.542Z,20.13
2017-11-28T09:20:56.296Z,18.83
2017-11-28T09:23:27.083Z,18.30
2017-11-28T09:25:57.838Z,17.87
2017-11-28T09:28:28.628Z,17.90
2017-11-28T09:30:59.374Z,17.17
2017-11-28T09:33:30.150Z,15.47
2017-11-28T09:36:00.918Z,15.67
2017-11-28T09:38:31.694Z,14.90
2017-11-28T09:41:02.482Z,14.87
2017-11-28T09:43:33.267Z,14.60
2017-11-28T09:46:04.027Z,13.73
2017-11-28T09:48:34.790Z,12.70
2017-11-28T09:51:05.566Z,12.50
2017-11-28T09:53:36.330Z,12.63
2017-11-28T09:56:07.123Z,12.03
2017-11-28T09:58:37.866Z,11.53
2017-11-28T10:01:08.679Z,10.93
2017-11-28T10:03:39.449Z,11.53
2017-11-28T10:06:10.202Z,10.83
2017-11-28T10:08:40.974Z,10.93
2017-11-28T10:11:11.737Z,10.20
2017-11-28T10:13:42.539Z,10.33
2017-11-28T10:16:13.316Z,9.07
2017-11-28T10:18:44.094Z,8.67
2017-11-28T10:21:14.863Z,8.87
2017-11-28T10:23:45.635Z,9.17
2017-11-28T10:26:16.382Z,8.07
2017-11-28T10:28:47.146Z,8.50
2017-11-28T10:31:17.902Z,7.90
2017-11-28T10:33:48.692Z,7.93
2017-11-28T10:36:19.452Z,8.13
2017-11-28T10:38:50.222Z,7.27
2017-11-28T10:41:20.987Z,6.73
2017-11-28T10:43:51.794Z,7.17
2017-11-28T10:46:22.562Z,6.73
2017-11-28T10:48:53.337Z,7.03
2017-11-28T10:51:24.102Z,5.77
2017-11-28T10:53:54.870Z,6.40
2017-11-28T10:56:25.624Z,6.03
2017-11-28T10:58:56.406Z,6.07
2017-11-28T11:01:27.157Z,5.83
2017-11-28T11:03:57.954Z,6.17
2017-11-28T11:06:28.719Z,5.93
2017-11-28T11:08:59.516Z,5.13
2017-11-28T11:11:30.288Z,5.40
2017-11-28T11:14:01.129Z,4.80
2017-11-28T11:16:31.901Z,5.00
2017-11-28T11:19:02.674Z,4.63
2017-11-28T11:21:33.430Z,4.63
2017-11-28T11:24:04.198Z,5.13
2017-11-28T11:26:34.966Z,4.60
2017-11-28T11:29:05.728Z,4.93
2017-11-28T11:31:36.527Z,4.63
2017-11-28T11:34:07.277Z,4.50
2017-11-28T11:36:38.056Z,4.30
2017-11-28T11:39:08.821Z,4.20
2017-11-28T11:41:39.606Z,3.93
2017-11-28T11:44:10.336Z,3.97
2017-11-28T11:46:41.114Z,3.97
2017-11-28T11:49:11.879Z,3.60
2017-11-28T11:51:42.637Z,3.80
2017-11-28T11:54:13.411Z,3.63
2017-11-28T11:56:44.154Z,3.73
2017-11-28T11:59:14.968Z,3.63
2017-11-28T12:01:45.710Z,3.80
2017-11-28T12:04:16.459Z,3.10
2017-11-28T12:06:47.267Z,3.40
2017-11-28T12:09:18.022Z,3.03
2017-11-28T12:11:48.813Z,3.10
2017-11-28T12:14:19.590Z,2.73
2017-11-28T12:16:50.345Z,3.10
2017-11-28T12:19:21.143Z,2.83
2017-11-28T12:21:51.898Z,3.00
2017-11-28T12:24:22.681Z,2.80
2017-11-28T12:26:53.442Z,2.80
2017-11-28T12:29:24.241Z,2.87
2017-11-28T12:31:54.982Z,2.60
2017-11-28T12:34:25.806Z,2.83
2017-11-28T12:36:56.577Z,2.53
2017-11-28T12:39:27.347Z,2.20
2017-11-28T12:41:58.106Z,2.47
2017-11-28T12:44:28.854Z,2.60
2017-11-28T12:46:59.628Z,2.27
2017-11-28T12:49:30.402Z,2.00
2017-11-28T12:52:01.178Z,2.10
2017-11-28T12:54:31.952Z,2.50
2017-11-28T12:57:02.734Z,2.30
2017-11-28T12:59:33.489Z,2.10
2017-11-28T13:02:04.286Z,2.20
2017-11-28T13:04:35.029Z,2.03
2017-11-28T13:07:05.790Z,2.10
2017-11-28T13:09:36.549Z,1.97
2017-11-28T13:12:07.314Z,2.00
2017-11-28T13:14:38.062Z,1.90
2017-11-28T13:17:08.830Z,2.00
2017-11-28T13:19:39.599Z,2.00
2017-11-28T13:22:10.362Z,1.83
2017-11-28T13:24:41.169Z,1.83
2017-11-28T13:27:11.925Z,1.83
2017-11-28T13:29:42.685Z,1.57
2017-11-28T13:32:13.438Z,1.70
2017-11-28T13:34:44.205Z,1.83
2017-11-28T13:37:15.006Z,1.50
2017-11-28T13:39:45.743Z,1.70
2017-11-28T13:42:16.510Z,1.60
2017-11-28T13:44:47.285Z,1.40
2017-11-28T13:47:18.045Z,1.70
2017-11-28T13:49:48.829Z,1.67
2017-11-28T13:52:19.626Z,1.70
2017-11-28T13:54:50.387Z,1.90
2017-11-28T13:57:21.141Z,1.70
2017-11-28T13:59:51.907Z,1.40
2017-11-28T14:02:22.683Z,1.60
2017-11-28T14:04:53.450Z,1.60
2017-11-28T14:07:24.230Z,1.70
2017-11-28T14:09:55.002Z,1.50
2017-11-28T14:12:25.770Z,1.50
2017-11-28T14:14:56.519Z,1.70
2017-11-28T14:17:27.295Z,1.50
2017-11-28T14:19:58.038Z,1.60
2017-11-28T14:22:28.855Z,1.50
2017-11-28T14:24:59.609Z,1.20
2017-11-28T14:27:30.401Z,1.70
2017-11-28T14:30:01.161Z,1.70
2017-11-28T14:32:31.933Z,1.30
2017-11-28T14:35:02.731Z,1.50
2017-11-28T14:37:33.512Z,1.47
2017-11-28T14:40:04.291Z,1.40
2017-11-28T14:42:35.054Z,1.10
2017-11-28T14:45:05.830Z,1.60
2017-11-28T14:47:36.582Z,1.67
2017-11-28T14:50:07.381Z,1.40
2017-11-28T14:52:38.126Z,1.20
2017-11-28T14:55:08.948Z,1.40
2017-11-28T14:57:39.682Z,1.00
2017-11-28T15:00:10.464Z,1.40
2017-11-28T15:02:41.230Z,1.40
2017-11-28T15:05:12.011Z,1.30
2017-11-28T15:07:42.782Z,1.30
2017-11-28T15:10:13.530Z,1.30
2017-11-28T15:12:44.322Z,1.13
2017-11-28T15:15:15.082Z,1.60
2017-11-28T15:17:45.857Z,1.37
2017-11-28T15:20:16.622Z,1.40
2017-11-28T15:22:47.410Z,1.30
2017-11-28T15:25:18.166Z,1.23
2017-11-28T15:27:48.951Z,1.23
2017-11-28T15:30:19.714Z,1.30
2017-11-28T15:32:50.498Z,1.40
2017-11-28T15:35:21.266Z,1.47
2017-11-28T15:37:52.043Z,1.40
2017-11-28T15:40:22.820Z,1.10
2017-11-28T15:42:53.606Z,1.50
2017-11-28T15:45:24.366Z,1.30
2017-11-28T15:47:55.131Z,1.30
2017-11-28T15:50:25.904Z,1.30
2017-11-28T15:52:56.690Z,1.20
2017-11-28T15:55:27.451Z,1.13
2017-11-28T15:57:58.249Z,1.33
2017-11-28T16:00:29.002Z,1.30
2017-11-28T16:02:59.778Z,1.30
2017-11-28T16:05:30.546Z,1.30
2017-11-28T16:08:01.312Z,1.50
2017-11-28T16:10:32.082Z,1.20
2017-11-28T16:13:02.848Z,1.17
2017-11-28T16:15:33.609Z,1.43
2017-11-28T16:18:04.378Z,1.57
2017-11-28T16:20:35.170Z,1.50
2017-11-28T16:23:05.946Z,1.20
2017-11-28T16:25:36.723Z,1.20
2017-11-28T16:28:07.500Z,1.40
2017-11-28T16:30:38.280Z,1.47
2017-11-28T16:33:09.039Z,1.40
2017-11-28T16:35:39.815Z,1.20
2017-11-28T16:38:10.595Z,1.03
2017-11-28T16:40:41.347Z,1.47
2017-11-28T16:43:12.120Z,1.33
2017-11-28T16:45:42.890Z,1.47
2017-11-28T16:48:13.673Z,1.33
2017-11-28T16:50:44.437Z,1.17
2017-11-28T16:53:15.209Z,1.30
2017-11-28T16:55:45.993Z,1.50
2017-11-28T16:58:16.762Z,1.40
2017-11-28T17:00:47.539Z,1.60
2017-11-28T17:03:18.307Z,1.37
2017-11-28T17:05:49.066Z,1.40
2017-11-28T17:08:19.829Z,1.57
2017-11-28T17:10:50.617Z,1.50
2017-11-28T17:13:21.378Z,1.43
2017-11-28T17:15:52.152Z,1.50
2017-11-28T17:18:22.923Z,1.50
2017-11-28T17:20:53.669Z,1.40
2017-11-28T17:23:24.489Z,1.40
2017-11-28T17:25:55.248Z,1.47
2017-11-28T17:28:26.069Z,1.50
2017-11-28T17:30:56.823Z,1.40
2017-11-28T17:33:27.602Z,1.50
2017-11-28T17:35:58.351Z,1.13
2017-11-28T17:38:29.126Z,1.47
2017-11-28T17:40:59.902Z,1.27
2017-11-28T17:43:30.674Z,1.40
2017-11-28T17:46:01.481Z,1.40
2017-11-28T17:48:32.258Z,1.13
2017-11-28T17:51:03.026Z,1.30
2017-11-28T17:53:33.829Z,1.07
2017-11-28T17:56:04.592Z,1.40
2017-11-28T17:58:35.350Z,1.10
2017-11-28T18:01:06.110Z,1.20
2017-11-28T18:03:36.901Z,1.20
2017-11-28T18:06:07.680Z,1.30
2017-11-28T18:08:38.469Z,1.10
2017-11-28T18:11:09.219Z,1.10
2017-11-28T18:13:39.991Z,1.10
2017-11-28T18:16:10.781Z,1.27
2017-11-28T18:18:41.550Z,1.50
2017-11-28T18:21:12.342Z,1.10
2017-11-28T18:23:43.114Z,1.20
2017-11-28T18:26:13.878Z,1.00
2017-11-28T18:28:44.690Z,1.00
2017-11-28T18:31:15.472Z,1.30
2017-11-28T18:33:46.226Z,1.20
2017-11-28T18:36:17.029Z,1.13
2017-11-28T18:38:47.829Z,1.50
2017-11-28T18:41:18.602Z,1.30
2017-11-28T18:43:49.372Z,1.30
2017-11-28T18:46:20.144Z,1.20
2017-11-28T18:48:50.899Z,1.10
2017-11-28T18:51:21.861Z,1.17
2017-11-28T18:53:52.617Z,1.30
2017-11-28T18:56:23.411Z,1.30
2017-11-28T18:58:54.207Z,1.30
2017-11-28T19:01:24.976Z,1.30
2017-11-28T19:03:55.826Z,1.40
2017-11-28T19:06:26.612Z,1.17
2017-11-28T19:08:57.360Z,1.20
2017-11-28T19:11:28.156Z,1.30
2017-11-28T19:13:58.902Z,1.03
2017-11-28T19:16:29.676Z,1.23
2017-11-28T19:19:00.434Z,1.37
2017-11-28T19:21:31.249Z,1.40
2017-11-28T19:24:02.034Z,1.40
2017-11-28T19:26:32.802Z,1.40
2017-11-28T19:29:03.610Z,1.37
2017-11-28T19:31:34.389Z,1.27
2017-11-28T19:34:05.171Z,1.37
2017-11-28T19:36:35.942Z,1.27
2017-11-28T19:39:06.711Z,1.37
2017-11-28T19:41:37.480Z,1.50
2017-11-28T19:44:08.250Z,1.30
2017-11-28T19:46:39.014Z,1.10
2017-11-28T19:49:09.782Z,1.60
2017-11-28T19:51:40.551Z,1.67
2017-11-28T19:54:11.345Z,6.00
2017-11-28T19:56:42.108Z,3.70
2017-11-28T19:59:12.890Z,4.93
2017-11-28T20:01:43.655Z,5.23
2017-11-28T20:04:14.429Z,3.80
2017-11-28T20:06:45.210Z,3.33
2017-11-28T20:09:15.969Z,3.50
2017-11-28T20:11:46.751Z,3.13
2017-11-28T20:14:17.579Z,3.20
2017-11-28T20:16:48.353Z,3.20
2017-11-28T20:19:19.138Z,3.00
2017-11-28T20:21:49.897Z,3.00
2017-11-28T20:24:20.660Z,3.17
2017-11-28T20:26:51.445Z,2.83
2017-11-28T20:29:22.192Z,2.90
2017-11-28T20:31:52.989Z,2.80
2017-11-28T20:34:23.742Z,3.00
2017-11-28T20:36:54.539Z,2.80
2017-11-28T20:39:25.292Z,3.00
2017-11-28T20:41:56.073Z,3.00
2017-11-28T20:44:26.854Z,3.07
2017-11-28T20:46:57.665Z,2.80
2017-11-28T20:49:28.435Z,2.70
2017-11-28T20:51:59.229Z,2.80
2017-11-28T20:54:30.029Z,3.00
2017-11-28T20:57:00.806Z,2.63
2017-11-28T20:59:31.598Z,2.60
2017-11-28T21:02:02.358Z,2.63
2017-11-28T21:04:33.155Z,2.80
2017-11-28T21:07:03.923Z,2.60
2017-11-28T21:09:34.730Z,2.40
2017-11-28T21:12:05.521Z,2.70
2017-11-28T21:14:36.872Z,2.70
2017-11-28T21:17:07.674Z,2.63
2017-11-28T21:19:38.422Z,2.60
2017-11-28T21:22:09.212Z,2.77
2017-11-28T21:24:39.958Z,2.50
2017-11-28T21:27:10.739Z,2.60
2017-11-28T21:29:41.513Z,2.37
2017-11-28T21:32:12.302Z,2.40
2017-11-28T21:34:43.081Z,2.67
2017-11-28T21:37:13.833Z,2.37
2017-11-28T21:39:44.644Z,2.70
2017-11-28T21:42:15.402Z,2.50
2017-11-28T21:44:46.166Z,2.60
2017-11-28T21:47:16.966Z,2.30
2017-11-28T21:49:47.715Z,2.63
2017-11-28T21:52:18.492Z,2.57
2017-11-28T21:54:49.245Z,2.73
2017-11-28T21:57:20.031Z,2.80
2017-11-28T21:59:50.795Z,2.30
2017-11-28T22:02:21.566Z,2.50
2017-11-28T22:04:52.335Z,2.63
2017-11-28T22:07:23.101Z,2.50
2017-11-28T22:09:53.878Z,2.40
2017-11-28T22:12:24.629Z,2.47
2017-11-28T22:14:55.506Z,2.23
2017-11-28T22:17:26.273Z,2.20
2017-11-28T22:19:57.043Z,2.30
2017-11-28T22:22:27.811Z,2.20
2017-11-28T22:24:58.602Z,2.23
2017-11-28T22:27:29.342Z,2.13
2017-11-28T22:30:00.134Z,2.10
2017-11-28T22:32:30.917Z,2.23
2017-11-28T22:35:01.665Z,2.40
2017-11-28T22:37:32.470Z,2.13
2017-11-28T22:40:03.224Z,1.97
2017-11-28T22:42:34.009Z,2.10
2017-11-28T22:45:04.767Z,2.00
2017-11-28T22:47:35.574Z,2.00
2017-11-28T22:50:06.358Z,2.00
2017-11-28T22:52:37.160Z,2.30
2017-11-28T22:55:07.992Z,1.90
2017-11-28T22:57:38.782Z,1.80
2017-11-28T23:00:09.566Z,2.00
2017-11-28T23:02:40.306Z,2.00
2017-11-28T23:05:11.076Z,2.10
2017-11-28T23:07:41.832Z,2.13
2017-11-28T23:10:12.598Z,2.00
2017-11-28T23:12:43.341Z,1.80
2017-11-28T23:15:14.127Z,1.90
2017-11-28T23:17:44.911Z,2.20
2017-11-28T23:20:15.651Z,1.90
2017-11-28T23:22:46.418Z,2.10
2017-11-28T23:25:17.192Z,1.80
2017-11-28T23:27:47.986Z,2.10
2017-11-28T23:30:18.741Z,2.07
2017-11-28T23:32:49.513Z,2.10
2017-11-28T23:35:20.283Z,2.00
2017-11-28T23:37:51.053Z,2.00
2017-11-28T23:40:21.812Z,2.00
2017-11-28T23:42:52.573Z,2.10
2017-11-28T23:45:23.346Z,1.60
2017-11-28T23:47:54.112Z,2.10
2017-11-28T23:50:24.881Z,1.90
2017-11-28T23:52:55.647Z,1.80
2017-11-28T23:55:26.409Z,1.90
2017-11-28T23:57:57.182Z,2.00
